Time;durP1;ratioP1;P1;durP2;ratioP2;P2;SDS_P1;SDS_P2;PMS_P1;PMS_P2;Temp;Humidity;BMP_temperature;BMP_pressure;BME280_temperature;BME280_humidity;BME280_pressure;Samples;Min_cycle;Max_cycle;Signal;HPM_P1;HPM_P2
2022/09/10 00:01:28;;;;;;;1.50;1.40;;;12.80;99.90;;;;;;5101813;27;20464;-81
2022/09/10 00:03:55;;;;;;;5.40;1.27;;;12.80;99.90;;;;;;5102929;27;20464;-81
2022/09/10 00:06:24;;;;;;;1.40;1.30;;;12.80;99.90;;;;;;5112017;27;20545;-82
2022/09/10 00:08:52;;;;;;;1.30;1.00;;;12.70;99.90;;;;;;5115039;27;20450;-82
2022/09/10 00:11:21;;;;;;;1.57;1.07;;;12.70;99.90;;;;;;5123531;27;20458;-81
2022/09/10 00:13:48;;;;;;;2.63;1.73;;;12.60;99.90;;;;;;5123722;27;21131;-82
2022/09/10 00:16:17;;;;;;;1.53;1.43;;;12.60;99.90;;;;;;5107387;28;20999;-82
2022/09/10 00:18:47;;;;;;;0.80;0.70;;;12.80;99.90;;;;;;5103785;27;20456;-82
2022/09/10 00:21:16;;;;;;;1.10;1.00;;;12.90;99.90;;;;;;5104938;27;22255;-83
2022/09/10 00:23:44;;;;;;;1.33;1.23;;;12.90;99.90;;;;;;5101372;27;20581;-81
2022/09/10 00:26:14;;;;;;;1.50;0.90;;;12.80;99.90;;;;;;5104112;28;21071;-84
2022/09/10 00:28:42;;;;;;;1.30;0.90;;;12.70;99.90;;;;;;5101532;28;20997;-82
2022/09/10 00:31:12;;;;;;;1.10;0.80;;;12.60;99.90;;;;;;5106773;27;20505;-82
2022/09/10 00:33:39;;;;;;;2.67;1.43;;;12.60;99.90;;;;;;5103885;28;20468;-84
2022/09/10 00:36:15;;;;;;;2.53;0.80;;;12.50;99.90;;;;;;5102661;27;20525;-81
2022/09/10 00:38:43;;;;;;;1.77;1.67;;;12.50;99.90;;;;;;5104701;27;20915;-81
2022/09/10 00:41:10;;;;;;;1.30;1.20;;;12.50;99.90;;;;;;5100305;28;20996;-81
2022/09/10 00:43:50;;;;;;;0.97;0.80;;;12.40;99.90;;;;;;5101819;28;20859;-82
2022/09/10 00:46:25;;;;;;;1.20;0.60;;;12.50;99.90;;;;;;5100294;28;20533;-84
2022/09/10 00:48:53;;;;;;;3.20;2.13;;;12.40;99.90;;;;;;5102254;27;20468;-81
2022/09/10 00:51:22;;;;;;;1.73;0.90;;;12.50;99.90;;;;;;5106326;27;20910;-80
2022/09/10 00:53:50;;;;;;;7.13;2.00;;;12.60;99.90;;;;;;5099787;28;20537;-80
2022/09/10 00:56:18;;;;;;;2.03;1.60;;;12.60;99.90;;;;;;5103836;28;20476;-81
2022/09/10 00:58:47;;;;;;;2.30;1.80;;;12.40;99.90;;;;;;5100337;27;20558;-85
2022/09/10 01:01:14;;;;;;;3.23;1.43;;;12.20;99.90;;;;;;5098112;28;21014;-81
2022/09/10 01:03:43;;;;;;;6.53;2.17;;;12.10;99.90;;;;;;5104015;27;20454;-81
2022/09/10 01:06:11;;;;;;;1.03;0.97;;;12.00;99.90;;;;;;5098508;27;20568;-85
2022/09/10 01:08:39;;;;;;;1.27;0.90;;;12.10;99.90;;;;;;5096747;27;20525;-84
2022/09/10 01:11:18;;;;;;;1.20;1.10;;;12.00;99.90;;;;;;5099246;27;21032;-81
2022/09/10 01:14:00;;;;;;;1.10;0.90;;;12.00;99.90;;;;;;5103781;28;20542;-83
2022/09/10 01:16:33;;;;;;;1.20;1.10;;;12.00;99.90;;;;;;5100620;27;20477;-84
2022/09/10 01:19:10;;;;;;;1.50;1.10;;;11.90;99.90;;;;;;5100953;28;20521;-81
2022/09/10 01:21:46;;;;;;;2.37;1.57;;;12.00;99.90;;;;;;5098004;28;20472;-84
2022/09/10 01:24:42;;;;;;;1.10;1.00;;;12.10;99.90;;;;;;5100710;27;20474;-82
2022/09/10 01:27:37;;;;;;;0.80;0.80;;;12.20;99.90;;;;;;5101255;27;20977;-82
2022/09/10 01:30:14;;;;;;;1.20;0.90;;;12.20;99.90;;;;;;5100122;27;20568;-83
2022/09/10 01:32:56;;;;;;;2.10;0.90;;;12.30;99.90;;;;;;5096517;28;21006;-83
2022/09/10 01:35:26;;;;;;;0.80;0.80;;;12.30;99.90;;;;;;5100237;28;20478;-82
2022/09/10 01:37:57;;;;;;;4.83;0.80;;;12.30;99.90;;;;;;5102507;27;20468;-81
2022/09/10 01:40:28;;;;;;;0.97;0.80;;;12.30;99.90;;;;;;5104266;27;20458;-81
2022/09/10 01:43:00;;;;;;;0.77;0.70;;;12.50;99.90;;;;;;5100162;28;20464;-82
2022/09/10 01:45:28;;;;;;;1.10;1.00;;;12.50;99.90;;;;;;5101428;27;20556;-81
2022/09/10 01:48:21;;;;;;;0.63;0.60;;;12.50;99.90;;;;;;5101162;27;20534;-85
2022/09/10 01:50:56;;;;;;;0.73;0.73;;;12.50;99.90;;;;;;5100972;27;20466;-83
2022/09/10 01:53:43;;;;;;;0.60;0.60;;;12.60;99.90;;;;;;5099583;27;20461;-82
2022/09/10 01:56:25;;;;;;;0.90;0.83;;;12.60;99.90;;;;;;5095764;28;20589;-81
2022/09/10 01:58:57;;;;;;;1.30;1.20;;;12.60;99.90;;;;;;5100009;28;21095;-83
2022/09/10 02:01:29;;;;;;;1.20;1.10;;;12.60;99.90;;;;;;5100018;28;20959;-84
2022/09/10 02:03:59;;;;;;;1.33;0.83;;;12.50;99.90;;;;;;5104664;28;20556;-82
2022/09/10 02:06:29;;;;;;;1.20;1.07;;;12.40;99.90;;;;;;5093069;28;20578;-84
2022/09/10 02:08:58;;;;;;;2.23;0.90;;;12.40;99.90;;;;;;5101213;28;21322;-82
2022/09/10 02:11:25;;;;;;;5.67;0.77;;;12.30;99.90;;;;;;5098820;28;20460;-83
2022/09/10 02:13:54;;;;;;;4.10;1.30;;;12.50;99.90;;;;;;5102969;28;20983;-84
2022/09/10 02:16:26;;;;;;;2.40;1.20;;;12.50;99.90;;;;;;5105494;27;20713;-83
2022/09/10 02:18:54;;;;;;;3.73;2.00;;;12.50;99.90;;;;;;5107205;28;20456;-83
2022/09/10 02:21:21;;;;;;;1.30;1.20;;;12.40;99.90;;;;;;5107742;27;20463;-81
2022/09/10 02:23:54;;;;;;;0.90;0.90;;;12.40;99.90;;;;;;5100514;28;20516;-81
2022/09/10 02:26:20;;;;;;;0.80;0.70;;;12.50;99.90;;;;;;5106196;27;20486;-85
2022/09/10 02:28:48;;;;;;;1.53;0.90;;;12.50;99.90;;;;;;5101568;27;20492;-83
2022/09/10 02:31:17;;;;;;;4.93;0.90;;;12.50;99.90;;;;;;5106872;27;20537;-82
2022/09/10 02:33:44;;;;;;;1.40;1.30;;;12.40;99.90;;;;;;5101505;28;20532;-83
2022/09/10 02:36:11;;;;;;;0.70;0.70;;;12.20;99.90;;;;;;5104835;27;20937;-81
2022/09/10 02:38:38;;;;;;;4.03;0.70;;;12.30;99.90;;;;;;5108498;27;20465;-83
2022/09/10 02:41:05;;;;;;;0.80;0.80;;;12.20;99.90;;;;;;5104226;27;20468;-83
2022/09/10 02:43:36;;;;;;;0.70;0.70;;;12.20;99.90;;;;;;5103424;27;20483;-82
2022/09/10 02:46:06;;;;;;;0.70;0.63;;;12.30;99.90;;;;;;5103555;28;20512;-84
2022/09/10 02:48:34;;;;;;;1.23;0.77;;;12.40;99.90;;;;;;5102759;28;20959;-84
2022/09/10 02:51:02;;;;;;;2.77;1.17;;;12.40;99.90;;;;;;5097333;27;20557;-81
2022/09/10 02:53:30;;;;;;;0.80;0.60;;;12.30;99.90;;;;;;5102287;27;21190;-82
2022/09/10 02:55:57;;;;;;;1.20;0.70;;;12.40;99.90;;;;;;5101637;27;20599;-83
2022/09/10 02:58:24;;;;;;;1.57;0.70;;;12.40;99.90;;;;;;5104335;27;20473;-81
2022/09/10 03:00:52;;;;;;;0.90;0.70;;;12.40;99.90;;;;;;5103176;28;20986;-82
2022/09/10 03:03:19;;;;;;;0.70;0.60;;;12.50;99.90;;;;;;5103779;27;20547;-82
2022/09/10 03:05:47;;;;;;;10.90;1.23;;;12.70;99.90;;;;;;5102255;28;20473;-82
2022/09/10 03:08:14;;;;;;;1.30;1.20;;;12.70;99.90;;;;;;5102723;28;20464;-82
2022/09/10 03:10:41;;;;;;;0.70;0.70;;;12.60;99.90;;;;;;5096975;27;20543;-81
2022/09/10 03:13:08;;;;;;;1.73;0.80;;;12.40;99.90;;;;;;5103719;27;20459;-83
2022/09/10 03:15:37;;;;;;;1.60;1.20;;;12.40;99.90;;;;;;5101396;27;20457;-82
2022/09/10 03:18:04;;;;;;;2.30;1.00;;;12.30;99.90;;;;;;5101526;27;20529;-81
2022/09/10 03:20:31;;;;;;;6.83;1.97;;;12.20;99.90;;;;;;5110559;27;20457;-83
2022/09/10 03:22:59;;;;;;;1.23;1.13;;;12.10;99.90;;;;;;5125979;28;20479;-83
2022/09/10 03:25:26;;;;;;;1.43;0.60;;;12.00;99.90;;;;;;5131054;28;20488;-83
2022/09/10 03:27:53;;;;;;;4.00;0.80;;;11.80;99.90;;;;;;5113971;28;20460;-84
2022/09/10 03:30:20;;;;;;;0.77;0.73;;;11.70;99.90;;;;;;5104297;27;20532;-83
2022/09/10 03:32:48;;;;;;;1.10;0.80;;;11.70;99.90;;;;;;5104001;27;20525;-84
2022/09/10 03:35:15;;;;;;;0.80;0.77;;;11.50;99.90;;;;;;5103067;28;20480;-85
2022/09/10 03:37:43;;;;;;;0.90;0.90;;;11.60;99.90;;;;;;5105507;27;20481;-83
2022/09/10 03:40:12;;;;;;;0.80;0.70;;;11.60;99.90;;;;;;5107314;27;20465;-82
2022/09/10 03:42:39;;;;;;;1.03;0.80;;;11.60;99.90;;;;;;5104043;27;20872;-82
2022/09/10 03:45:07;;;;;;;1.10;0.60;;;11.60;99.90;;;;;;5099835;27;20536;-83
2022/09/10 03:47:36;;;;;;;0.70;0.70;;;11.70;99.90;;;;;;5104444;27;20915;-83
2022/09/10 03:50:03;;;;;;;1.90;0.83;;;11.60;99.90;;;;;;5100508;27;20467;-82
2022/09/10 03:52:30;;;;;;;1.20;0.57;;;11.60;99.90;;;;;;5100505;27;20462;-83
2022/09/10 03:54:57;;;;;;;1.23;0.87;;;11.50;99.90;;;;;;5101340;27;21193;-81
2022/09/10 03:57:26;;;;;;;1.43;0.70;;;11.60;99.90;;;;;;5099672;27;20990;-83
2022/09/10 03:59:53;;;;;;;1.17;0.60;;;11.70;99.90;;;;;;5100741;28;20456;-83
2022/09/10 04:02:20;;;;;;;0.60;0.60;;;11.60;99.90;;;;;;5105752;27;20455;-83
2022/09/10 04:04:47;;;;;;;2.20;0.97;;;11.60;99.90;;;;;;5102005;27;20461;-84
2022/09/10 04:07:14;;;;;;;0.60;0.60;;;11.30;99.90;;;;;;5101788;27;21343;-82
2022/09/10 04:09:41;;;;;;;0.93;0.93;;;11.30;99.90;;;;;;5102093;27;21553;-85
2022/09/10 04:12:08;;;;;;;0.90;0.90;;;11.20;99.90;;;;;;5100189;27;20937;-82
2022/09/10 04:14:37;;;;;;;0.60;0.60;;;11.20;99.90;;;;;;5103071;27;20494;-83
2022/09/10 04:17:04;;;;;;;1.10;1.00;;;11.30;99.90;;;;;;5098761;27;20495;-82
2022/09/10 04:19:31;;;;;;;1.17;0.83;;;11.20;99.90;;;;;;5099185;27;20474;-82
2022/09/10 04:21:58;;;;;;;1.17;0.67;;;11.30;99.90;;;;;;5097374;27;20524;-84
2022/09/10 04:24:25;;;;;;;1.10;0.73;;;11.20;99.90;;;;;;5103771;27;21232;-85
2022/09/10 04:26:52;;;;;;;1.27;0.70;;;11.20;99.90;;;;;;5094955;27;20552;-83
2022/09/10 04:29:19;;;;;;;1.53;0.93;;;11.20;99.90;;;;;;5095386;27;20761;-83
2022/09/10 04:31:47;;;;;;;1.50;0.70;;;11.20;99.90;;;;;;5098220;28;20472;-84
2022/09/10 04:34:15;;;;;;;0.70;0.60;;;11.10;99.90;;;;;;5092064;27;20468;-84
2022/09/10 04:36:42;;;;;;;0.70;0.50;;;11.10;99.90;;;;;;5096482;27;20510;-83
2022/09/10 04:39:09;;;;;;;0.60;0.50;;;11.10;99.90;;;;;;5107151;27;20857;-84
2022/09/10 04:41:36;;;;;;;1.00;0.60;;;11.20;99.90;;;;;;5102423;27;20548;-84
2022/09/10 04:44:03;;;;;;;1.20;0.87;;;11.10;99.90;;;;;;5099368;28;20530;-83
2022/09/10 04:46:30;;;;;;;1.93;0.60;;;11.10;99.90;;;;;;5104686;27;20998;-82
2022/09/10 04:48:59;;;;;;;0.80;0.50;;;11.00;99.90;;;;;;5103111;27;20559;-82
2022/09/10 04:51:26;;;;;;;1.07;0.77;;;10.90;99.90;;;;;;5099028;27;20473;-84
2022/09/10 04:53:53;;;;;;;2.73;0.60;;;10.90;99.90;;;;;;5098067;27;20532;-82
2022/09/10 04:56:21;;;;;;;1.50;0.83;;;11.00;99.90;;;;;;5105466;28;20468;-86
2022/09/10 04:58:48;;;;;;;0.87;0.70;;;11.00;99.90;;;;;;5096828;27;20466;-84
2022/09/10 05:01:15;;;;;;;0.97;0.70;;;11.00;99.90;;;;;;5095754;27;20462;-83
2022/09/10 05:03:42;;;;;;;0.90;0.70;;;11.00;99.90;;;;;;5102739;27;20856;-84
2022/09/10 05:06:10;;;;;;;0.90;0.70;;;11.20;99.90;;;;;;5101013;27;20475;-83
2022/09/10 05:08:37;;;;;;;0.80;0.80;;;11.10;99.90;;;;;;5105767;27;20472;-83
2022/09/10 05:11:05;;;;;;;1.13;0.70;;;11.30;99.90;;;;;;5096406;28;20465;-83
2022/09/10 05:13:32;;;;;;;1.33;0.70;;;11.40;99.90;;;;;;5101366;28;20522;-85
2022/09/10 05:15:59;;;;;;;1.03;0.80;;;11.40;99.90;;;;;;5101663;27;20468;-84
2022/09/10 05:18:26;;;;;;;3.40;0.70;;;11.50;99.90;;;;;;5106156;27;20472;-83
2022/09/10 05:20:53;;;;;;;2.20;0.60;;;11.40;99.90;;;;;;5102477;27;20468;-84
2022/09/10 05:23:21;;;;;;;2.27;0.83;;;11.40;99.90;;;;;;5100174;28;20461;-83
2022/09/10 05:25:49;;;;;;;0.60;0.60;;;11.50;99.90;;;;;;5099344;27;20480;-82
2022/09/10 05:28:16;;;;;;;0.70;0.70;;;11.60;99.90;;;;;;5099672;28;20467;-84
2022/09/10 05:30:45;;;;;;;0.80;0.80;;;11.50;99.90;;;;;;5103373;27;20451;-83
2022/09/10 05:33:12;;;;;;;0.60;0.50;;;11.50;99.90;;;;;;5102335;27;20486;-83
2022/09/10 05:35:39;;;;;;;12.43;1.17;;;11.40;99.90;;;;;;5097484;27;20582;-84
2022/09/10 05:38:07;;;;;;;0.50;0.50;;;11.70;99.90;;;;;;5100528;28;20516;-86
2022/09/10 05:40:35;;;;;;;0.90;0.90;;;11.80;99.90;;;;;;5095335;28;20543;-84
2022/09/10 05:43:02;;;;;;;0.50;0.50;;;11.80;99.90;;;;;;5105672;27;21027;-85
2022/09/10 05:45:29;;;;;;;1.73;0.70;;;12.10;99.90;;;;;;5095121;28;20460;-83
2022/09/10 05:47:56;;;;;;;7.90;0.80;;;12.20;99.90;;;;;;5092799;28;20506;-84
2022/09/10 05:50:23;;;;;;;2.67;0.80;;;12.40;99.90;;;;;;5089153;28;20461;-82
2022/09/10 05:52:50;;;;;;;1.20;1.00;;;12.40;99.90;;;;;;5099762;27;20460;-83
2022/09/10 05:55:17;;;;;;;0.60;0.60;;;12.50;99.90;;;;;;5094423;28;20525;-85
2022/09/10 05:57:45;;;;;;;1.80;1.10;;;12.50;99.90;;;;;;5093110;28;20573;-82
2022/09/10 06:00:13;;;;;;;0.87;0.70;;;12.50;99.90;;;;;;5091127;28;20466;-82
2022/09/10 06:02:41;;;;;;;0.63;0.50;;;12.60;99.90;;;;;;5095907;28;20473;-83
2022/09/10 06:05:09;;;;;;;0.97;0.70;;;12.60;99.90;;;;;;5097489;28;20464;-82
2022/09/10 06:07:36;;;;;;;0.93;0.80;;;12.80;99.90;;;;;;5097979;28;20489;-84
2022/09/10 06:10:04;;;;;;;1.43;0.50;;;13.00;99.90;;;;;;5099191;28;20988;-84
2022/09/10 06:12:31;;;;;;;2.00;0.70;;;13.20;99.90;;;;;;5098254;28;20501;-83
2022/09/10 06:14:59;;;;;;;1.13;0.60;;;13.30;99.90;;;;;;5101200;28;20526;-85
2022/09/10 06:17:26;;;;;;;1.10;0.97;;;13.30;99.90;;;;;;5102087;28;20983;-82
2022/09/10 06:19:53;;;;;;;1.33;1.20;;;13.20;99.90;;;;;;5102498;28;20846;-83
2022/09/10 06:22:20;;;;;;;0.80;0.70;;;13.30;99.90;;;;;;5105000;28;20526;-83
2022/09/10 06:24:48;;;;;;;3.07;0.80;;;13.30;99.90;;;;;;5098443;28;20526;-83
2022/09/10 06:27:16;;;;;;;0.97;0.80;;;13.20;99.90;;;;;;5100346;28;20520;-83
2022/09/10 06:29:43;;;;;;;0.80;0.63;;;13.20;99.90;;;;;;5098166;28;20488;-83
2022/09/10 06:32:12;;;;;;;0.70;0.70;;;13.50;99.90;;;;;;5103488;28;20461;-84
2022/09/10 06:34:39;;;;;;;0.93;0.93;;;13.70;99.90;;;;;;5118841;28;20514;-82
2022/09/10 06:37:06;;;;;;;2.33;0.90;;;13.80;99.90;;;;;;5126351;28;20536;-85
2022/09/10 06:39:33;;;;;;;0.80;0.80;;;14.00;99.90;;;;;;5107868;28;20458;-82
2022/09/10 06:42:00;;;;;;;2.80;1.23;;;14.00;99.90;;;;;;5096260;28;20469;-82
2022/09/10 06:44:28;;;;;;;0.70;0.70;;;14.20;99.90;;;;;;5105062;28;20471;-83
2022/09/10 06:46:55;;;;;;;1.20;0.80;;;14.50;99.90;;;;;;5103520;27;20533;-86
2022/09/10 06:49:23;;;;;;;2.67;1.10;;;14.60;99.90;;;;;;5097241;28;20547;-85
2022/09/10 06:51:51;;;;;;;1.67;0.70;;;15.00;99.90;;;;;;5095493;28;20544;-84
2022/09/10 06:54:18;;;;;;;0.80;0.80;;;15.30;99.90;;;;;;5096869;28;20526;-84
2022/09/10 06:56:48;;;;;;;2.30;0.60;;;15.40;99.90;;;;;;5098117;28;20495;-85
2022/09/10 06:59:15;;;;;;;0.70;0.70;;;15.80;99.90;;;;;;5101691;28;20467;-83
2022/09/10 07:01:42;;;;;;;0.60;0.50;;;15.80;99.90;;;;;;5108906;28;20465;-84
2022/09/10 07:04:09;;;;;;;4.63;0.60;;;16.00;99.90;;;;;;5105456;27;20490;-83
2022/09/10 07:06:38;;;;;;;2.57;1.10;;;16.20;99.90;;;;;;5098178;27;20488;-86
2022/09/10 07:09:05;;;;;;;0.70;0.60;;;16.30;99.90;;;;;;5099941;27;20464;-83
2022/09/10 07:11:33;;;;;;;2.60;1.03;;;16.50;99.90;;;;;;5105460;28;20910;-84
2022/09/10 07:14:01;;;;;;;1.10;0.90;;;16.90;99.90;;;;;;5103202;27;20463;-83
2022/09/10 07:16:28;;;;;;;2.07;0.73;;;16.90;99.90;;;;;;5104056;27;20552;-84
2022/09/10 07:18:56;;;;;;;4.93;0.60;;;16.70;99.90;;;;;;5106483;27;20467;-83
2022/09/10 07:21:26;;;;;;;0.63;0.40;;;16.50;99.90;;;;;;5110842;27;20506;-84
2022/09/10 07:23:57;;;;;;;0.90;0.60;;;16.40;99.90;;;;;;5110108;27;20464;-84
2022/09/10 07:26:25;;;;;;;1.00;0.50;;;16.20;99.90;;;;;;5102075;27;21041;-84
2022/09/10 07:28:52;;;;;;;0.70;0.40;;;16.30;99.90;;;;;;5097646;27;20489;-83
2022/09/10 07:31:21;;;;;;;3.13;0.40;;;16.20;99.90;;;;;;5100500;27;20882;-82
2022/09/10 07:33:49;;;;;;;0.63;0.57;;;16.40;99.90;;;;;;5101445;27;20461;-84
2022/09/10 07:36:17;;;;;;;1.03;0.67;;;16.60;99.90;;;;;;5102569;27;20494;-83
2022/09/10 07:38:45;;;;;;;1.90;0.40;;;16.80;99.90;;;;;;5099610;27;20499;-84
2022/09/10 07:41:14;;;;;;;0.70;0.43;;;17.10;99.90;;;;;;5100473;27;20478;-83
2022/09/10 07:43:42;;;;;;;0.50;0.47;;;17.10;99.90;;;;;;5088135;27;20504;-83
2022/09/10 07:46:12;;;;;;;0.80;0.60;;;17.20;99.90;;;;;;5080415;27;21031;-82
2022/09/10 07:48:40;;;;;;;0.40;0.40;;;17.20;99.90;;;;;;5079163;27;21003;-83
2022/09/10 07:51:09;;;;;;;0.93;0.40;;;17.40;99.90;;;;;;5079727;27;22275;-83
2022/09/10 07:53:37;;;;;;;2.20;0.60;;;17.20;99.90;;;;;;5098112;27;21040;-81
2022/09/10 07:56:06;;;;;;;0.50;0.40;;;17.20;99.90;;;;;;5099728;27;20469;-83
2022/09/10 07:58:37;;;;;;;0.67;0.30;;;17.30;99.90;;;;;;5101184;27;20965;-81
2022/09/10 08:01:07;;;;;;;1.10;0.50;;;17.50;99.90;;;;;;5104178;27;20454;-82
2022/09/10 08:03:35;;;;;;;2.70;0.40;;;17.50;99.90;;;;;;5105625;27;20992;-80
2022/09/10 08:06:03;;;;;;;0.63;0.53;;;17.60;99.90;;;;;;5101125;27;21179;-81
2022/09/10 08:08:31;;;;;;;0.40;0.30;;;17.60;99.90;;;;;;5099731;27;21383;-81
2022/09/10 08:11:05;;;;;;;1.13;0.40;;;17.70;99.90;;;;;;5095901;28;20469;-82
2022/09/10 08:13:34;;;;;;;0.70;0.40;;;17.70;99.90;;;;;;5099881;27;20473;-81
2022/09/10 08:16:05;;;;;;;0.50;0.40;;;17.80;99.90;;;;;;5095968;27;20978;-81
2022/09/10 08:18:32;;;;;;;0.40;0.40;;;18.30;99.90;;;;;;5101094;27;20486;-81
2022/09/10 08:20:59;;;;;;;0.40;0.30;;;18.30;99.90;;;;;;5105938;27;20466;-81
2022/09/10 08:23:27;;;;;;;0.40;0.30;;;18.30;99.90;;;;;;5101699;27;20461;-83
2022/09/10 08:25:55;;;;;;;0.60;0.40;;;18.50;99.90;;;;;;5101660;28;20454;-83
2022/09/10 08:28:22;;;;;;;1.03;0.30;;;18.50;99.90;;;;;;5103697;27;21046;-82
2022/09/10 08:30:57;;;;;;;1.93;0.60;;;18.10;99.90;;;;;;5103995;27;20903;-82
2022/09/10 08:33:26;;;;;;;0.80;0.30;;;18.00;99.90;;;;;;5105030;27;20467;-82
2022/09/10 08:35:55;;;;;;;0.67;0.40;;;18.00;99.90;;;;;;5099638;28;20569;-82
2022/09/10 08:38:24;;;;;;;2.10;0.50;;;18.20;99.90;;;;;;5102477;28;20922;-83
2022/09/10 08:40:53;;;;;;;0.50;0.40;;;18.10;99.90;;;;;;5098892;28;21025;-82
2022/09/10 08:43:30;;;;;;;0.40;0.40;;;18.10;99.90;;;;;;5098172;27;20458;-83
2022/09/10 08:46:02;;;;;;;0.53;0.40;;;18.20;99.90;;;;;;5097309;28;20461;-84
2022/09/10 08:48:34;;;;;;;0.73;0.40;;;18.50;99.90;;;;;;5102495;27;21051;-83
2022/09/10 08:51:08;;;;;;;1.23;0.50;;;18.50;99.90;;;;;;5094437;28;20458;-81
2022/09/10 08:53:46;;;;;;;0.50;0.40;;;18.40;99.90;;;;;;5103001;27;20475;-82
2022/09/10 08:56:18;;;;;;;1.13;0.70;;;18.40;99.90;;;;;;5102175;27;20457;-83
2022/09/10 08:58:49;;;;;;;0.50;0.40;;;18.20;99.90;;;;;;5096379;27;20461;-84
2022/09/10 09:01:31;;;;;;;0.70;0.40;;;18.10;99.90;;;;;;5095866;27;21050;-89
2022/09/10 09:04:02;;;;;;;2.20;0.40;;;18.30;99.90;;;;;;5094775;27;20469;-81
2022/09/10 09:06:35;;;;;;;0.50;0.47;;;18.30;99.90;;;;;;5098201;28;20442;-82
2022/09/10 09:09:04;;;;;;;0.50;0.40;;;18.30;99.90;;;;;;5100635;27;20473;-80
2022/09/10 09:11:45;;;;;;;0.50;0.40;;;18.10;99.90;;;;;;5104509;28;20456;-80
2022/09/10 09:14:28;;;;;;;4.20;0.50;;;18.20;99.90;;;;;;5100079;27;20454;-83
2022/09/10 09:17:16;;;;;;;0.60;0.40;;;18.20;99.90;;;;;;5103237;27;20478;-81
2022/09/10 09:19:55;;;;;;;0.67;0.30;;;18.30;99.90;;;;;;5102484;27;20534;-82
2022/09/10 09:22:28;;;;;;;0.40;0.33;;;18.20;99.90;;;;;;5100051;27;21047;-83
2022/09/10 09:25:09;;;;;;;0.40;0.40;;;18.20;99.90;;;;;;5099621;27;20457;-80
2022/09/10 09:27:41;;;;;;;0.53;0.40;;;18.10;99.90;;;;;;5098083;27;21038;-82
2022/09/10 09:30:17;;;;;;;0.70;0.30;;;18.00;99.90;;;;;;5099175;28;20565;-81
2022/09/10 09:32:46;;;;;;;1.07;0.40;;;18.10;99.90;;;;;;5103931;28;20972;-82
2022/09/10 09:35:25;;;;;;;2.00;0.40;;;18.10;99.90;;;;;;5104390;28;20503;-83
2022/09/10 09:38:12;;;;;;;0.40;0.30;;;18.10;99.90;;;;;;5103167;28;20542;-82
2022/09/10 09:40:45;;;;;;;0.53;0.40;;;18.10;99.90;;;;;;5097943;27;20453;-81
2022/09/10 09:43:22;;;;;;;0.50;0.30;;;17.90;99.90;;;;;;5092590;28;20434;-81
2022/09/10 09:45:52;;;;;;;0.50;0.30;;;18.00;99.90;;;;;;5125407;27;20430;-82
2022/09/10 09:48:23;;;;;;;0.43;0.37;;;17.80;99.90;;;;;;5121360;28;20470;-82
2022/09/10 09:50:54;;;;;;;1.77;0.50;;;17.30;99.90;;;;;;5100547;28;20996;-81
2022/09/10 09:53:24;;;;;;;4.37;0.50;;;16.40;99.90;;;;;;5102053;27;20511;-82
2022/09/10 09:55:54;;;;;;;0.50;0.30;;;15.70;99.90;;;;;;5098958;28;20459;-80
2022/09/10 09:58:35;;;;;;;0.80;0.50;;;15.60;99.90;;;;;;5104597;28;20477;-82
2022/09/10 10:01:27;;;;;;;0.40;0.30;;;15.70;99.90;;;;;;5095368;27;20456;-79
2022/09/10 10:03:59;;;;;;;0.40;0.20;;;16.00;99.90;;;;;;5095063;28;20562;-82
2022/09/10 10:06:31;;;;;;;0.40;0.30;;;16.40;99.90;;;;;;5105311;28;20473;-82
2022/09/10 10:09:06;;;;;;;0.30;0.20;;;16.30;99.90;;;;;;5101580;28;20491;-82
2022/09/10 10:11:47;;;;;;;0.40;0.30;;;16.40;99.90;;;;;;5104849;28;20466;-82
2022/09/10 10:14:24;;;;;;;0.40;0.30;;;16.50;99.90;;;;;;5102821;28;21007;-81
2022/09/10 10:16:53;;;;;;;0.40;0.20;;;16.60;99.90;;;;;;5102610;28;20470;-80
2022/09/10 10:19:39;;;;;;;1.17;0.40;;;16.70;99.90;;;;;;5100923;28;21028;-82
2022/09/10 10:22:26;;;;;;;0.40;0.30;;;16.70;99.90;;;;;;5098625;28;20454;-82
2022/09/10 10:24:54;;;;;;;0.30;0.20;;;17.00;99.90;;;;;;5100875;28;20449;-81
2022/09/10 10:27:28;;;;;;;0.40;0.20;;;17.00;99.90;;;;;;5104921;28;20454;-81
2022/09/10 10:29:59;;;;;;;0.70;0.20;;;17.50;99.90;;;;;;5088208;28;20708;-81
2022/09/10 10:32:39;;;;;;;0.30;0.20;;;17.40;99.90;;;;;;5108962;27;20585;-82
2022/09/10 10:35:34;;;;;;;0.40;0.30;;;17.40;99.90;;;;;;5114564;27;20509;-80
2022/09/10 10:38:27;;;;;;;0.40;0.30;;;17.40;99.90;;;;;;5094529;28;20473;-81
2022/09/10 10:41:06;;;;;;;1.57;0.30;;;17.70;99.90;;;;;;5108487;28;20453;-82
2022/09/10 10:43:47;;;;;;;0.40;0.30;;;17.90;99.90;;;;;;5110657;28;20445;-82
2022/09/10 10:46:20;;;;;;;0.37;0.23;;;18.10;99.90;;;;;;5103894;28;20461;-81
2022/09/10 10:49:03;;;;;;;0.33;0.20;;;18.10;99.90;;;;;;5097638;28;20501;-82
2022/09/10 10:51:39;;;;;;;0.30;0.20;;;17.90;99.90;;;;;;5092431;28;20537;-80
2022/09/10 10:54:32;;;;;;;0.43;0.30;;;18.00;99.90;;;;;;5109066;28;20540;-84
2022/09/10 10:57:12;;;;;;;0.40;0.27;;;18.10;99.90;;;;;;5093276;28;21045;-81
2022/09/10 10:59:51;;;;;;;0.40;0.20;;;17.80;99.90;;;;;;5098711;28;20446;-81
2022/09/10 11:02:24;;;;;;;0.40;0.20;;;17.60;99.90;;;;;;5107537;28;20485;-83
2022/09/10 11:04:53;;;;;;;0.40;0.20;;;17.50;99.90;;;;;;5089212;28;20504;-82
2022/09/10 11:07:27;;;;;;;0.40;0.20;;;18.00;99.90;;;;;;5094120;28;20466;-81
2022/09/10 11:09:59;;;;;;;0.37;0.27;;;18.40;99.90;;;;;;5107506;27;20794;-83
2022/09/10 11:12:31;;;;;;;0.40;0.30;;;18.80;99.90;;;;;;5101755;28;20447;-81
2022/09/10 11:15:02;;;;;;;0.40;0.20;;;18.90;99.90;;;;;;5110197;27;20506;-81
2022/09/10 11:17:38;;;;;;;0.40;0.30;;;18.70;99.90;;;;;;5098340;28;20478;-82
2022/09/10 11:20:10;;;;;;;0.33;0.20;;;18.30;99.90;;;;;;5093976;28;20466;-80
2022/09/10 11:22:44;;;;;;;0.40;0.20;;;18.10;99.90;;;;;;5090082;28;20439;-81
2022/09/10 11:25:21;;;;;;;0.40;0.20;;;17.90;99.90;;;;;;5093420;28;20490;-83
2022/09/10 11:27:51;;;;;;;1.23;0.20;;;17.60;99.90;;;;;;5091008;28;20470;-80
2022/09/10 11:30:19;;;;;;;0.40;0.30;;;17.30;99.90;;;;;;5102196;28;20485;-83
2022/09/10 11:32:54;;;;;;;3.17;0.20;;;17.10;99.90;;;;;;5087977;28;20926;-81
2022/09/10 11:35:27;;;;;;;0.30;0.20;;;17.00;99.90;;;;;;5096542;28;20460;-82
2022/09/10 11:38:06;;;;;;;0.33;0.20;;;16.90;99.90;;;;;;5091960;28;20535;-80
2022/09/10 11:40:39;;;;;;;0.30;0.20;;;16.90;99.90;;;;;;5105119;28;20458;-83
2022/09/10 11:43:12;;;;;;;0.30;0.20;;;16.90;99.90;;;;;;5108028;28;20444;-80
2022/09/10 11:45:46;;;;;;;0.43;0.30;;;16.90;99.90;;;;;;5107791;28;21007;-83
2022/09/10 11:48:22;;;;;;;0.40;0.20;;;16.90;99.90;;;;;;5107495;28;20513;-82
2022/09/10 11:50:54;;;;;;;0.30;0.20;;;16.90;99.90;;;;;;5109315;27;20464;-83
2022/09/10 11:53:24;;;;;;;0.30;0.20;;;16.90;99.90;;;;;;5108188;28;20705;-82
2022/09/10 11:56:19;;;;;;;0.67;0.30;;;16.80;99.90;;;;;;5109347;28;20540;-80
2022/09/10 11:58:56;;;;;;;0.30;0.20;;;16.90;99.90;;;;;;5104171;28;20546;-81
2022/09/10 12:01:36;;;;;;;2.73;0.50;;;17.20;99.90;;;;;;5107711;28;20522;-82
2022/09/10 12:04:32;;;;;;;1.03;0.30;;;17.80;99.90;;;;;;5100017;28;20465;-82
2022/09/10 12:07:08;;;;;;;0.40;0.20;;;18.00;99.90;;;;;;5107477;28;20442;-80
2022/09/10 12:09:43;;;;;;;0.40;0.20;;;18.50;99.90;;;;;;5108613;28;20562;-81
2022/09/10 12:12:15;;;;;;;0.33;0.20;;;18.40;99.90;;;;;;5105620;28;20466;-80
2022/09/10 12:14:42;;;;;;;0.70;0.30;;;18.40;99.90;;;;;;5115134;27;20514;-81
2022/09/10 12:17:15;;;;;;;0.40;0.30;;;18.40;99.90;;;;;;5109047;27;20499;-81
2022/09/10 12:19:46;;;;;;;0.40;0.20;;;18.40;99.90;;;;;;5100942;28;20492;-81
2022/09/10 12:22:20;;;;;;;0.40;0.20;;;18.30;99.90;;;;;;5107259;28;20503;-81
2022/09/10 12:24:53;;;;;;;0.40;0.30;;;18.40;99.90;;;;;;5108081;28;20457;-81
2022/09/10 12:27:42;;;;;;;0.40;0.30;;;18.30;99.90;;;;;;5107848;28;20835;-80
2022/09/10 12:31:01;;;;;;;0.30;0.20;;;18.10;99.90;;;;;;5108164;28;20493;-82
2022/09/10 12:34:07;;;;;;;0.40;0.30;;;18.00;99.90;;;;;;5109085;28;20450;-80
2022/09/10 12:37:10;;;;;;;0.30;0.20;;;18.00;99.90;;;;;;5109204;28;20531;-80
2022/09/10 12:39:37;;;;;;;0.40;0.20;;;18.30;99.90;;;;;;5099910;28;20466;-82
2022/09/10 12:42:35;;;;;;;0.40;0.30;;;18.30;99.90;;;;;;5099618;28;20442;-80
2022/09/10 12:45:08;;;;;;;0.30;0.30;;;18.50;99.90;;;;;;5092443;28;20483;-80
2022/09/10 12:47:49;;;;;;;1.03;0.83;;;18.50;99.90;;;;;;5088669;28;20451;-80
2022/09/10 12:50:44;;;;;;;0.40;0.30;;;18.60;99.90;;;;;;5094666;27;20478;-80
2022/09/10 12:53:43;;;;;;;0.30;0.20;;;18.80;99.90;;;;;;5092491;28;21176;-80
2022/09/10 12:56:45;;;;;;;2.60;1.27;;;19.10;99.90;;;;;;5108232;28;20534;-80
2022/09/10 12:59:34;;;;;;;0.40;0.20;;;19.10;99.90;;;;;;5109691;28;20497;-80
2022/09/10 13:02:01;;;;;;;0.53;0.30;;;19.50;99.90;;;;;;5098977;28;20547;-81
2022/09/10 13:04:33;;;;;;;0.30;0.20;;;19.40;99.90;;;;;;5094823;28;20450;-80
2022/09/10 13:07:03;;;;;;;0.40;0.23;;;19.10;99.90;;;;;;5094078;28;20480;-81
2022/09/10 13:09:34;;;;;;;0.80;0.40;;;19.00;99.90;;;;;;5107353;28;20853;-82
2022/09/10 13:12:04;;;;;;;0.40;0.20;;;18.90;99.90;;;;;;5106714;28;20467;-81